createdAt,value
2023-02-13T00:02:18.599Z,6.60
2023-02-13T00:06:21.192Z,7.60
2023-02-13T00:10:24.589Z,8.70
2023-02-13T00:14:27.646Z,7.40
2023-02-13T00:18:33.163Z,8.00
2023-02-13T00:22:38.889Z,8.90
2023-02-13T00:26:41.646Z,7.50
2023-02-13T00:30:44.929Z,6.80
2023-02-13T00:34:47.272Z,8.60
2023-02-13T00:38:49.345Z,8.60
2023-02-13T00:42:51.773Z,10.30
2023-02-13T00:46:54.672Z,9.40
2023-02-13T00:50:57.580Z,8.00
2023-02-13T00:54:59.923Z,10.60
2023-02-13T00:59:01.637Z,10.00
2023-02-13T01:03:03.440Z,10.80
2023-02-13T01:07:05.872Z,11.10
2023-02-13T01:11:08.761Z,11.60
2023-02-13T01:15:10.717Z,10.80
2023-02-13T01:19:12.767Z,9.50
2023-02-13T01:23:15.519Z,8.40
2023-02-13T01:27:18.166Z,8.70
2023-02-13T01:31:20.998Z,8.30
2023-02-13T01:35:22.951Z,9.60
2023-02-13T01:39:25.042Z,8.80
2023-02-13T01:43:59.268Z,10.00
2023-02-13T01:48:10.711Z,11.40
2023-02-13T01:52:14.388Z,9.70
2023-02-13T01:56:41.422Z,11.30
2023-02-13T02:00:49.088Z,9.20
2023-02-13T02:04:51.083Z,9.40
2023-02-13T02:08:56.876Z,10.90
2023-02-13T02:13:13.622Z,8.20
2023-02-13T02:17:16.868Z,8.50
2023-02-13T02:21:52.491Z,8.70
2023-02-13T02:26:22.156Z,9.00
2023-02-13T02:30:47.177Z,9.90
2023-02-13T02:34:58.081Z,8.90
2023-02-13T02:39:19.503Z,10.60
2023-02-13T02:43:54.843Z,9.50
2023-02-13T02:48:25.048Z,10.60
2023-02-13T02:52:38.757Z,9.70
2023-02-13T02:56:44.044Z,9.40
2023-02-13T03:01:05.616Z,9.80
2023-02-13T03:05:36.276Z,9.60
2023-02-13T03:10:03.445Z,11.60
2023-02-13T03:18:27.370Z,10.80
2023-02-13T03:22:40.728Z,11.30
2023-02-13T03:27:01.124Z,10.50
2023-02-13T03:31:25.765Z,11.20
2023-02-13T03:36:11.037Z,9.60
2023-02-13T03:40:19.983Z,11.60
2023-02-13T03:44:46.963Z,10.90
2023-02-13T03:49:09.299Z,8.60
2023-02-13T03:53:14.143Z,9.90
2023-02-13T03:57:38.055Z,10.10
2023-02-13T04:06:05.992Z,10.10
2023-02-13T04:10:15.780Z,12.00
2023-02-13T04:14:25.696Z,9.60
2023-02-13T04:18:32.201Z,10.40
2023-02-13T04:22:34.865Z,10.80
2023-02-13T04:26:41.447Z,8.30
2023-02-13T04:34:46.125Z,12.70
2023-02-13T04:38:48.587Z,10.70
2023-02-13T04:42:51.375Z,9.90
2023-02-13T04:46:54.706Z,11.70
2023-02-13T04:50:57.426Z,10.60
2023-02-13T04:54:59.756Z,11.50
2023-02-13T04:59:02.229Z,10.50
2023-02-13T05:03:06.716Z,11.10
2023-02-13T05:07:08.582Z,8.90
2023-02-13T05:11:10.437Z,11.70
2023-02-13T05:15:12.185Z,9.30
2023-02-13T05:19:14.212Z,10.20
2023-02-13T05:23:25.643Z,10.30
2023-02-13T05:27:27.533Z,8.40
2023-02-13T05:31:29.636Z,8.70
2023-02-13T05:35:31.480Z,8.00
2023-02-13T05:39:33.356Z,8.60
2023-02-13T05:43:35.205Z,8.10
2023-02-13T05:47:36.970Z,6.30
2023-02-13T05:51:38.908Z,6.80
2023-02-13T05:55:40.629Z,5.80
2023-02-13T05:59:42.401Z,8.10
2023-02-13T06:03:44.192Z,6.00
2023-02-13T06:07:46.078Z,7.20
2023-02-13T06:11:47.879Z,8.70
2023-02-13T06:15:50.401Z,9.00
2023-02-13T06:19:52.219Z,8.60
2023-02-13T06:23:54.086Z,10.00
2023-02-13T06:27:56.242Z,11.90
2023-02-13T06:31:58.518Z,10.30
2023-02-13T06:36:01.105Z,11.40
2023-02-13T06:40:03.311Z,10.10
2023-02-13T06:44:07.496Z,13.40
2023-02-13T06:48:09.494Z,12.10
2023-02-13T06:52:11.393Z,12.10
2023-02-13T06:56:13.285Z,17.20
2023-02-13T07:00:16.838Z,22.80
2023-02-13T07:04:18.771Z,19.40
2023-02-13T07:08:20.646Z,20.40
2023-02-13T07:12:22.553Z,20.20
2023-02-13T07:16:24.540Z,19.70
2023-02-13T07:20:27.648Z,19.20
2023-02-13T07:24:29.328Z,17.70
2023-02-13T07:28:31.451Z,14.00
2023-02-13T07:32:33.350Z,15.30
2023-02-13T07:36:35.261Z,13.60
2023-02-13T07:40:37.173Z,15.70
2023-02-13T07:44:39.048Z,11.60
2023-02-13T07:48:40.812Z,15.50
2023-02-13T07:52:42.603Z,15.20
2023-02-13T07:56:44.489Z,11.60
2023-02-13T08:00:46.255Z,14.50
2023-02-13T08:04:48.180Z,12.70
2023-02-13T08:09:10.001Z,17.20
2023-02-13T08:13:13.043Z,15.80
2023-02-13T08:17:14.961Z,16.70
2023-02-13T08:21:16.834Z,16.90
2023-02-13T08:25:19.302Z,17.00
2023-02-13T08:29:21.277Z,16.50
2023-02-13T08:33:23.160Z,15.70
2023-02-13T08:37:25.284Z,16.90
2023-02-13T08:41:28.146Z,15.40
2023-02-13T08:45:30.432Z,16.60
2023-02-13T08:49:33.018Z,8.80
2023-02-13T08:53:35.791Z,5.40
2023-02-13T08:57:37.536Z,5.50
2023-02-13T09:01:40.113Z,4.30
2023-02-13T09:05:42.307Z,2.20
2023-02-13T09:09:44.216Z,3.10
2023-02-13T09:13:47.761Z,2.30
2023-02-13T09:17:50.171Z,3.40
2023-02-13T09:21:51.929Z,2.60
2023-02-13T09:25:53.821Z,2.90
2023-02-13T09:29:55.806Z,1.70
2023-02-13T09:33:57.733Z,3.10
2023-02-13T09:38:00.299Z,3.00
2023-02-13T09:42:05.177Z,2.20
2023-02-13T09:46:15.157Z,3.10
2023-02-13T09:50:29.743Z,2.60
2023-02-13T09:54:32.002Z,3.40
2023-02-13T09:58:41.863Z,3.20
2023-02-13T10:03:06.454Z,3.10
2023-02-13T10:07:20.004Z,3.60
2023-02-13T10:11:32.006Z,3.60
2023-02-13T10:15:48.544Z,3.10
2023-02-13T10:19:56.480Z,2.90
2023-02-13T10:24:06.867Z,4.90
2023-02-13T10:28:25.071Z,3.10
2023-02-13T10:32:51.448Z,10.50
2023-02-13T10:36:53.467Z,4.40
2023-02-13T10:41:18.136Z,4.00
2023-02-13T10:45:25.837Z,3.50
2023-02-13T10:50:01.013Z,5.10
2023-02-13T10:54:20.908Z,3.60
2023-02-13T10:58:52.544Z,4.60
2023-02-13T11:02:56.124Z,3.80
2023-02-13T11:07:03.546Z,4.50
2023-02-13T11:11:35.475Z,4.30
2023-02-13T11:15:37.346Z,4.90
2023-02-13T11:19:51.116Z,4.80
2023-02-13T11:23:56.937Z,4.00
2023-02-13T11:28:17.100Z,4.90
2023-02-13T11:32:25.989Z,4.30
2023-02-13T11:36:32.028Z,4.80
2023-02-13T11:40:34.011Z,5.30
2023-02-13T11:44:35.850Z,4.70
2023-02-13T11:48:37.757Z,5.70
2023-02-13T11:52:39.567Z,5.40
2023-02-13T11:57:04.006Z,5.80
2023-02-13T12:01:27.981Z,5.30
2023-02-13T12:05:29.958Z,5.90
2023-02-13T12:09:32.048Z,7.20
2023-02-13T12:13:38.519Z,6.20
2023-02-13T12:17:44.592Z,7.60
2023-02-13T12:22:15.240Z,8.40
2023-02-13T12:26:31.070Z,6.50
2023-02-13T12:30:52.061Z,7.50
2023-02-13T12:35:21.021Z,10.20
2023-02-13T12:39:36.753Z,9.10
2023-02-13T12:43:41.490Z,11.50
2023-02-13T12:48:06.674Z,10.60
2023-02-13T12:52:26.953Z,9.40
2023-02-13T12:56:31.683Z,7.30
2023-02-13T13:00:50.187Z,8.30
2023-02-13T13:04:55.096Z,11.20
2023-02-13T13:09:16.759Z,8.80
2023-02-13T13:13:37.768Z,8.30
2023-02-13T13:17:50.251Z,12.90
2023-02-13T13:21:59.193Z,9.30
2023-02-13T13:26:35.467Z,11.50
2023-02-13T13:30:38.230Z,6.90
2023-02-13T13:34:40.173Z,10.00
2023-02-13T13:38:41.871Z,8.70
2023-02-13T13:42:51.361Z,8.50
2023-02-13T13:47:04.238Z,8.50
2023-02-13T13:51:07.575Z,10.30
2023-02-13T13:55:47.361Z,10.40
2023-02-13T13:59:51.291Z,10.00
2023-02-13T14:04:04.627Z,11.00
2023-02-13T14:08:37.286Z,10.30
2023-02-13T14:12:50.157Z,9.50
2023-02-13T14:16:53.017Z,10.00
2023-02-13T14:20:58.887Z,7.80
2023-02-13T14:25:04.975Z,9.10
2023-02-13T14:29:09.741Z,9.00
2023-02-13T14:33:27.378Z,7.60
2023-02-13T14:37:39.121Z,11.00
2023-02-13T14:42:05.801Z,9.30
2023-02-13T14:46:25.863Z,9.30
2023-02-13T14:50:31.881Z,10.70
2023-02-13T14:54:48.753Z,10.60
2023-02-13T14:59:09.139Z,8.50
2023-02-13T15:03:40.275Z,11.20
2023-02-13T15:08:19.452Z,10.30
2023-02-13T15:12:36.256Z,11.20
2023-02-13T15:16:38.070Z,10.20
2023-02-13T15:20:42.868Z,8.40
2023-02-13T15:24:47.754Z,8.90
2023-02-13T15:29:01.528Z,8.10
2023-02-13T15:33:17.296Z,9.10
2023-02-13T15:37:25.325Z,8.00
2023-02-13T15:41:37.010Z,10.80
2023-02-13T15:45:43.478Z,10.40
2023-02-13T15:49:47.803Z,10.70
2023-02-13T15:53:55.203Z,11.60
2023-02-13T15:57:59.616Z,10.90
2023-02-13T16:02:03.902Z,8.90
2023-02-13T16:06:07.585Z,10.10
2023-02-13T16:10:18.148Z,8.20
2023-02-13T16:14:28.912Z,8.30
2023-02-13T16:18:30.944Z,10.00
2023-02-13T16:22:45.851Z,9.80
2023-02-13T16:26:49.100Z,9.70
2023-02-13T16:30:56.668Z,9.80
2023-02-13T16:35:17.209Z,9.00
2023-02-13T16:39:30.524Z,8.80
2023-02-13T16:43:37.666Z,9.20
2023-02-13T16:47:39.538Z,9.40
2023-02-13T16:51:48.613Z,11.60
2023-02-13T16:56:00.716Z,9.80
2023-02-13T17:00:03.575Z,8.90
2023-02-13T17:04:22.056Z,9.80
2023-02-13T17:08:23.847Z,9.90
2023-02-13T17:12:27.400Z,8.90
2023-02-13T17:16:29.505Z,8.10
2023-02-13T17:20:33.481Z,9.30
2023-02-13T17:24:35.548Z,7.60
2023-02-13T17:28:37.284Z,7.30
2023-02-13T17:32:39.152Z,9.20
2023-02-13T17:36:40.951Z,7.60
2023-02-13T17:40:44.291Z,8.80
2023-02-13T17:44:46.665Z,7.50
2023-02-13T17:48:48.583Z,6.50
2023-02-13T17:52:50.805Z,5.60
2023-02-13T17:56:53.071Z,7.80
2023-02-13T18:00:55.240Z,7.20
2023-02-13T18:04:57.380Z,7.30
2023-02-13T18:08:59.248Z,6.80
2023-02-13T18:13:04.569Z,7.50
2023-02-13T18:17:06.597Z,9.30
2023-02-13T18:21:08.654Z,9.50
2023-02-13T18:25:12.375Z,7.80
2023-02-13T18:29:14.331Z,8.20
2023-02-13T18:33:16.487Z,6.00
2023-02-13T18:37:20.040Z,7.30
2023-02-13T18:41:21.963Z,8.90
2023-02-13T18:45:24.235Z,7.30
2023-02-13T18:49:26.505Z,7.50
2023-02-13T18:53:29.453Z,6.80
2023-02-13T18:57:31.452Z,8.10
2023-02-13T19:01:34.883Z,7.90
2023-02-13T19:05:40.034Z,9.70
2023-02-13T19:09:43.342Z,47.30
2023-02-13T19:13:46.709Z,9.60
2023-02-13T19:17:48.721Z,10.10
2023-02-13T19:21:50.499Z,13.90
2023-02-13T19:25:52.465Z,29.80
2023-02-13T19:29:54.405Z,11.10
2023-02-13T19:33:59.248Z,9.50
2023-02-13T19:38:01.353Z,9.20
2023-02-13T19:42:03.320Z,8.80
2023-02-13T19:46:12.389Z,7.10
2023-02-13T19:50:16.160Z,7.70
2023-02-13T19:54:18.186Z,16.10
2023-02-13T19:58:20.037Z,23.60
2023-02-13T20:02:22.193Z,39.70
2023-02-13T20:06:34.449Z,15.80
2023-02-13T20:10:36.648Z,13.30
2023-02-13T20:14:38.733Z,15.90
2023-02-13T20:18:42.744Z,14.60
2023-02-13T20:22:48.616Z,16.70
2023-02-13T20:26:50.435Z,17.70
2023-02-13T20:30:52.257Z,14.40
2023-02-13T20:34:59.911Z,14.10
2023-02-13T20:39:04.669Z,13.90
2023-02-13T20:43:06.455Z,17.30
2023-02-13T20:47:08.468Z,13.10
2023-02-13T20:51:12.928Z,11.80
2023-02-13T20:55:15.043Z,13.30
2023-02-13T20:59:16.908Z,14.30
2023-02-13T21:03:18.702Z,13.70
2023-02-13T21:07:20.717Z,14.40
2023-02-13T21:11:23.437Z,16.80
2023-02-13T21:15:27.761Z,11.70
2023-02-13T21:19:30.738Z,13.30
2023-02-13T21:23:33.279Z,10.40
2023-02-13T21:27:35.019Z,7.00
2023-02-13T21:31:43.537Z,8.20
2023-02-13T21:35:45.380Z,9.10
2023-02-13T21:39:47.220Z,9.50
2023-02-13T21:43:50.988Z,10.70
2023-02-13T21:47:56.394Z,8.90
2023-02-13T21:51:58.156Z,8.00
2023-02-13T21:56:10.244Z,9.30
2023-02-13T22:00:12.924Z,9.90
2023-02-13T22:04:17.175Z,12.40
2023-02-13T22:08:18.948Z,10.90
2023-02-13T22:12:20.733Z,11.90
2023-02-13T22:16:23.444Z,12.30
2023-02-13T22:20:25.312Z,13.20
2023-02-13T22:24:27.232Z,11.80
2023-02-13T22:28:29.666Z,12.90
2023-02-13T22:32:31.508Z,13.40
2023-02-13T22:36:37.893Z,14.20
2023-02-13T22:44:41.513Z,15.20
2023-02-13T22:48:45.575Z,11.90
2023-02-13T22:52:47.838Z,11.80
2023-02-13T22:56:49.561Z,17.00
2023-02-13T23:00:51.394Z,18.70
2023-02-13T23:04:53.656Z,20.30
2023-02-13T23:08:55.991Z,18.10
2023-02-13T23:12:57.791Z,18.30
2023-02-13T23:17:17.998Z,17.80
2023-02-13T23:21:20.010Z,21.10
2023-02-13T23:25:22.093Z,19.20
2023-02-13T23:29:24.446Z,18.80
2023-02-13T23:33:26.631Z,18.30
2023-02-13T23:37:28.611Z,19.10
2023-02-13T23:41:31.071Z,19.30
2023-02-13T23:45:33.584Z,19.20
2023-02-13T23:49:36.080Z,20.20
2023-02-13T23:53:37.997Z,17.20
2023-02-13T23:57:41.346Z,19.10
